createdAt,value
2018-04-23T00:01:12.835Z,3.27
2018-04-23T00:03:41.100Z,3.00
2018-04-23T00:06:09.386Z,3.23
2018-04-23T00:08:37.701Z,4.00
2018-04-23T00:11:06.144Z,2.73
2018-04-23T00:13:34.412Z,4.00
2018-04-23T00:16:02.708Z,2.90
2018-04-23T00:18:30.969Z,3.40
2018-04-23T00:21:05.069Z,3.30
2018-04-23T00:23:38.367Z,3.23
2018-04-23T00:26:07.440Z,3.20
2018-04-23T00:28:35.726Z,2.63
2018-04-23T00:31:04.010Z,3.10
2018-04-23T00:33:32.295Z,3.57
2018-04-23T00:36:00.560Z,3.97
2018-04-23T00:38:28.838Z,3.97
2018-04-23T00:40:57.102Z,3.33
2018-04-23T00:43:25.412Z,3.30
2018-04-23T00:45:53.663Z,3.13
2018-04-23T00:48:22.019Z,2.97
2018-04-23T00:50:50.460Z,3.67
2018-04-23T00:53:37.298Z,3.30
2018-04-23T00:56:05.663Z,2.90
2018-04-23T00:58:34.724Z,3.53
2018-04-23T01:01:03.050Z,3.63
2018-04-23T01:03:31.331Z,3.30
2018-04-23T01:05:59.597Z,3.20
2018-04-23T01:08:27.849Z,3.50
2018-04-23T01:10:57.090Z,3.40
2018-04-23T01:13:25.361Z,3.80
2018-04-23T01:15:53.634Z,3.53
2018-04-23T01:18:21.897Z,3.60
2018-04-23T01:20:50.165Z,3.57
2018-04-23T01:23:18.442Z,3.80
2018-04-23T01:25:47.028Z,3.20
2018-04-23T01:28:15.279Z,3.77
2018-04-23T01:30:44.405Z,2.73
2018-04-23T01:33:13.167Z,4.00
2018-04-23T01:35:42.199Z,2.83
2018-04-23T01:38:10.818Z,3.57
2018-04-23T01:40:39.144Z,3.30
2018-04-23T01:43:07.438Z,3.47
2018-04-23T01:45:35.701Z,3.97
2018-04-23T01:48:04.067Z,3.90
2018-04-23T01:50:32.526Z,3.70
2018-04-23T01:53:01.551Z,3.50
2018-04-23T01:55:29.858Z,4.43
2018-04-23T01:57:58.921Z,3.67
2018-04-23T02:00:27.207Z,4.20
2018-04-23T02:02:55.454Z,4.10
2018-04-23T02:05:23.756Z,3.37
2018-04-23T02:07:52.028Z,4.23
2018-04-23T02:10:20.318Z,4.00
2018-04-23T02:12:48.611Z,3.40
2018-04-23T02:15:17.163Z,3.70
2018-04-23T02:17:45.449Z,3.90
2018-04-23T02:20:13.967Z,3.93
2018-04-23T02:22:42.251Z,3.90
2018-04-23T02:25:11.270Z,3.67
2018-04-23T02:27:39.560Z,3.57
2018-04-23T02:30:07.821Z,3.40
2018-04-23T02:32:36.111Z,4.77
2018-04-23T02:35:04.364Z,3.50
2018-04-23T02:37:32.631Z,4.50
2018-04-23T02:40:00.889Z,4.50
2018-04-23T02:42:29.955Z,4.03
2018-04-23T02:44:58.207Z,4.07
2018-04-23T02:47:26.494Z,5.47
2018-04-23T02:49:54.765Z,4.27
2018-04-23T02:52:23.047Z,4.13
2018-04-23T02:54:51.344Z,4.30
2018-04-23T02:57:19.599Z,3.90
2018-04-23T02:59:47.867Z,4.20
2018-04-23T03:02:16.144Z,4.30
2018-04-23T03:04:44.412Z,3.30
2018-04-23T03:07:12.690Z,4.30
2018-04-23T03:09:40.957Z,4.30
2018-04-23T03:12:09.219Z,4.70
2018-04-23T03:14:37.517Z,4.07
2018-04-23T03:17:05.777Z,4.60
2018-04-23T03:19:34.149Z,4.47
2018-04-23T03:22:02.418Z,4.70
2018-04-23T03:24:30.718Z,3.60
2018-04-23T03:26:59.028Z,4.00
2018-04-23T03:29:27.287Z,4.13
2018-04-23T03:31:55.594Z,2.90
2018-04-23T03:34:24.626Z,4.60
2018-04-23T03:36:52.906Z,4.73
2018-04-23T03:39:21.298Z,4.00
2018-04-23T03:41:49.557Z,4.20
2018-04-23T03:44:17.857Z,3.70
2018-04-23T03:46:46.126Z,4.23
2018-04-23T03:49:14.393Z,4.20
2018-04-23T03:51:42.713Z,4.13
2018-04-23T03:54:11.761Z,3.77
2018-04-23T03:56:40.068Z,4.27
2018-04-23T03:59:08.319Z,4.60
2018-04-23T04:01:36.585Z,4.40
2018-04-23T04:04:04.853Z,4.20
2018-04-23T04:06:33.228Z,4.40
2018-04-23T04:09:01.476Z,4.37
2018-04-23T04:11:29.784Z,4.50
2018-04-23T04:14:15.811Z,3.90
2018-04-23T04:17:00.653Z,4.30
2018-04-23T04:19:28.981Z,3.77
2018-04-23T04:21:57.281Z,3.83
2018-04-23T04:24:25.929Z,3.73
2018-04-23T04:26:54.985Z,4.67
2018-04-23T04:29:23.237Z,4.23
2018-04-23T04:31:51.626Z,4.57
2018-04-23T04:34:19.891Z,3.83
2018-04-23T04:36:48.163Z,4.10
2018-04-23T04:39:16.466Z,4.63
2018-04-23T04:41:44.918Z,4.63
2018-04-23T04:44:13.196Z,4.57
2018-04-23T04:46:41.462Z,4.77
2018-04-23T04:49:09.763Z,4.10
2018-04-23T04:51:38.068Z,4.30
2018-04-23T04:54:06.349Z,4.40
2018-04-23T04:56:35.370Z,3.67
2018-04-23T04:59:03.671Z,4.60
2018-04-23T05:01:31.964Z,5.10
2018-04-23T05:04:00.568Z,4.40
2018-04-23T05:06:28.845Z,4.83
2018-04-23T05:08:57.115Z,4.03
2018-04-23T05:11:25.359Z,4.47
2018-04-23T05:13:53.661Z,4.20
2018-04-23T05:16:22.057Z,4.60
2018-04-23T05:18:51.098Z,4.33
2018-04-23T05:21:19.373Z,4.33
2018-04-23T05:23:47.700Z,5.40
2018-04-23T05:26:15.895Z,4.37
2018-04-23T05:28:44.238Z,4.27
2018-04-23T05:31:12.601Z,5.00
2018-04-23T05:33:40.893Z,5.00
2018-04-23T05:36:09.922Z,5.50
2018-04-23T05:38:38.313Z,4.40
2018-04-23T05:41:07.523Z,5.40
2018-04-23T05:43:35.813Z,5.70
2018-04-23T05:46:04.119Z,4.57
2018-04-23T05:48:33.694Z,4.40
2018-04-23T05:51:01.959Z,4.20
2018-04-23T05:53:30.212Z,5.83
2018-04-23T05:55:58.499Z,4.70
2018-04-23T05:58:26.780Z,5.80
2018-04-23T06:00:55.661Z,5.17
2018-04-23T06:03:23.958Z,5.10
2018-04-23T06:05:52.222Z,4.77
2018-04-23T06:08:20.493Z,4.90
2018-04-23T06:10:48.864Z,5.50
2018-04-23T06:13:17.146Z,5.63
2018-04-23T06:15:45.422Z,4.70
2018-04-23T06:18:13.689Z,4.70
2018-04-23T06:20:41.965Z,6.40
2018-04-23T06:23:10.269Z,8.67
2018-04-23T06:25:38.747Z,7.17
2018-04-23T06:28:07.053Z,7.60
2018-04-23T06:30:36.212Z,9.18
2018-04-23T06:33:04.521Z,9.13
2018-04-23T06:35:33.575Z,8.90
2018-04-23T06:38:01.879Z,10.25
2018-04-23T06:40:30.159Z,8.90
2018-04-23T06:42:59.276Z,8.18
2018-04-23T06:45:27.554Z,9.88
2018-04-23T06:47:55.850Z,9.60
2018-04-23T06:50:24.303Z,8.90
2018-04-23T06:52:53.388Z,10.70
2018-04-23T06:55:22.422Z,9.82
2018-04-23T06:57:50.770Z,11.12
2018-04-23T07:00:19.039Z,10.13
2018-04-23T07:02:48.147Z,10.65
2018-04-23T07:05:16.422Z,10.85
2018-04-23T07:07:44.703Z,10.30
2018-04-23T07:10:13.008Z,10.25
2018-04-23T07:12:41.305Z,10.70
2018-04-23T07:15:09.613Z,10.50
2018-04-23T07:17:38.771Z,10.85
2018-04-23T07:20:07.248Z,9.10
2018-04-23T07:22:35.513Z,10.65
2018-04-23T07:25:03.795Z,11.60
2018-04-23T07:27:32.098Z,11.53
2018-04-23T07:30:01.199Z,12.30
2018-04-23T07:32:30.347Z,12.87
2018-04-23T07:34:58.759Z,10.98
2018-04-23T07:37:27.052Z,12.25
2018-04-23T07:39:56.150Z,13.35
2018-04-23T07:42:24.446Z,12.10
2018-04-23T07:44:52.741Z,11.93
2018-04-23T07:47:21.171Z,12.10
2018-04-23T07:49:50.954Z,13.38
2018-04-23T07:52:19.271Z,12.90
2018-04-23T07:54:48.325Z,13.20
2018-04-23T07:57:16.632Z,13.45
2018-04-23T07:59:45.733Z,13.27
2018-04-23T08:02:14.783Z,12.48
2018-04-23T08:04:43.211Z,12.30
2018-04-23T08:07:11.627Z,12.20
2018-04-23T08:09:39.903Z,12.50
2018-04-23T08:12:08.431Z,10.60
2018-04-23T08:14:37.501Z,12.60
2018-04-23T08:17:06.638Z,11.57
2018-04-23T08:19:34.928Z,12.05
2018-04-23T08:22:03.313Z,11.73
2018-04-23T08:24:31.597Z,11.12
2018-04-23T08:26:59.902Z,11.70
2018-04-23T08:29:28.216Z,11.82
2018-04-23T08:31:56.524Z,12.07
2018-04-23T08:34:24.892Z,11.93
2018-04-23T08:36:53.175Z,10.90
2018-04-23T08:39:21.447Z,10.77
2018-04-23T08:41:49.729Z,10.38
2018-04-23T08:44:18.134Z,10.15
2018-04-23T08:46:46.799Z,12.35
2018-04-23T08:49:15.157Z,11.40
2018-04-23T08:51:43.514Z,11.77
2018-04-23T08:54:11.803Z,9.55
2018-04-23T08:56:40.080Z,11.02
2018-04-23T08:59:08.363Z,10.23
2018-04-23T09:01:36.643Z,10.32
2018-04-23T09:04:04.927Z,9.60
2018-04-23T09:06:33.210Z,9.20
2018-04-23T09:09:01.502Z,10.80
2018-04-23T09:11:29.869Z,10.02
2018-04-23T09:13:58.143Z,9.38
2018-04-23T09:16:26.635Z,10.30
2018-04-23T09:18:55.682Z,8.52
2018-04-23T09:21:24.063Z,9.85
2018-04-23T09:23:52.638Z,9.90
2018-04-23T09:26:20.951Z,9.23
2018-04-23T09:28:49.236Z,9.83
2018-04-23T09:31:17.510Z,9.20
2018-04-23T09:33:45.814Z,8.17
2018-04-23T09:36:14.846Z,9.07
2018-04-23T09:38:43.154Z,8.50
2018-04-23T09:41:11.432Z,8.50
2018-04-23T09:43:39.809Z,8.40
2018-04-23T09:46:08.120Z,9.13
2018-04-23T09:48:37.253Z,9.00
2018-04-23T09:51:05.564Z,8.13
2018-04-23T09:53:33.871Z,7.83
2018-04-23T09:56:02.166Z,8.60
2018-04-23T09:58:30.442Z,7.73
2018-04-23T10:00:58.753Z,8.70
2018-04-23T10:03:27.088Z,9.07
2018-04-23T10:06:03.086Z,9.37
2018-04-23T10:08:31.335Z,7.67
2018-04-23T10:11:00.565Z,7.10
2018-04-23T10:13:28.905Z,7.90
2018-04-23T10:15:57.175Z,5.90
2018-04-23T10:18:25.452Z,8.23
2018-04-23T10:20:53.738Z,6.70
2018-04-23T10:23:22.226Z,6.83
2018-04-23T10:25:50.652Z,6.23
2018-04-23T10:28:18.912Z,6.33
2018-04-23T10:30:47.287Z,5.77
2018-04-23T10:33:15.597Z,6.13
2018-04-23T10:35:43.900Z,6.67
2018-04-23T10:38:12.181Z,5.93
2018-04-23T10:40:40.434Z,6.40
2018-04-23T10:43:08.718Z,6.97
2018-04-23T10:45:37.029Z,7.10
2018-04-23T10:48:05.337Z,6.77
2018-04-23T10:50:34.366Z,7.47
2018-04-23T10:53:02.672Z,7.63
2018-04-23T10:55:30.919Z,8.13
2018-04-23T10:57:59.559Z,7.37
2018-04-23T11:00:28.597Z,6.90
2018-04-23T11:02:56.926Z,6.17
2018-04-23T11:05:25.970Z,6.87
2018-04-23T11:07:54.248Z,6.30
2018-04-23T11:10:22.615Z,6.63
2018-04-23T11:12:50.914Z,7.03
2018-04-23T11:15:19.204Z,6.90
2018-04-23T11:17:48.988Z,5.13
2018-04-23T11:20:17.357Z,5.80
2018-04-23T11:22:45.638Z,6.23
2018-04-23T11:25:14.720Z,6.27
2018-04-23T11:27:42.977Z,5.90
2018-04-23T11:30:11.320Z,7.50
2018-04-23T11:32:39.603Z,7.50
2018-04-23T11:35:08.669Z,6.90
2018-04-23T11:37:37.130Z,7.67
2018-04-23T11:40:05.417Z,6.97
2018-04-23T11:42:33.701Z,7.87
2018-04-23T11:45:02.542Z,7.53
2018-04-23T11:47:30.772Z,6.77
2018-04-23T11:49:59.180Z,7.70
2018-04-23T11:52:28.245Z,7.00
2018-04-23T11:54:56.579Z,6.50
2018-04-23T11:57:24.871Z,5.87
2018-04-23T11:59:53.139Z,6.67
2018-04-23T12:02:21.418Z,6.70
2018-04-23T12:04:49.693Z,6.20
2018-04-23T12:07:17.979Z,6.07
2018-04-23T12:09:46.502Z,7.40
2018-04-23T12:12:15.570Z,8.80
2018-04-23T12:14:44.698Z,6.83
2018-04-23T12:17:13.764Z,7.80
2018-04-23T12:19:42.033Z,7.60
2018-04-23T12:22:11.097Z,6.23
2018-04-23T12:24:39.381Z,7.77
2018-04-23T12:27:07.851Z,7.67
2018-04-23T12:29:36.126Z,8.40
2018-04-23T12:32:04.472Z,7.00
2018-04-23T12:34:32.804Z,7.80
2018-04-23T12:37:01.252Z,7.40
2018-04-23T12:39:29.535Z,9.00
2018-04-23T12:41:57.833Z,8.20
2018-04-23T12:44:26.207Z,7.77
2018-04-23T12:46:54.522Z,7.57
2018-04-23T12:49:23.579Z,7.77
2018-04-23T12:51:51.853Z,7.83
2018-04-23T12:54:20.203Z,8.00
2018-04-23T12:56:48.500Z,8.87
2018-04-23T12:59:16.780Z,8.07
2018-04-23T13:01:45.101Z,8.03
2018-04-23T13:04:13.380Z,7.20
2018-04-23T13:06:41.811Z,7.43
2018-04-23T13:09:10.449Z,7.17
2018-04-23T13:11:38.734Z,6.90
2018-04-23T13:14:07.027Z,9.07
2018-04-23T13:16:35.308Z,8.23
2018-04-23T13:19:03.580Z,8.67
2018-04-23T13:21:31.837Z,8.03
2018-04-23T13:24:00.146Z,8.50
2018-04-23T13:26:28.450Z,8.63
2018-04-23T13:28:57.499Z,10.03
2018-04-23T13:31:25.838Z,8.57
2018-04-23T13:33:54.863Z,7.10
2018-04-23T13:36:23.227Z,8.73
2018-04-23T13:38:51.483Z,8.50
2018-04-23T13:41:19.755Z,9.67
2018-04-23T13:43:48.801Z,8.83
2018-04-23T13:46:17.115Z,9.33
2018-04-23T13:48:46.213Z,9.03
2018-04-23T13:51:15.303Z,8.57
2018-04-23T13:53:44.355Z,10.17
2018-04-23T13:56:12.750Z,9.20
2018-04-23T13:58:41.730Z,8.60
2018-04-23T14:01:10.035Z,9.40
2018-04-23T14:03:38.327Z,9.40
2018-04-23T14:06:07.372Z,9.53
2018-04-23T14:08:35.704Z,8.20
2018-04-23T14:11:03.984Z,9.03
2018-04-23T14:13:32.462Z,8.83
2018-04-23T14:16:00.739Z,9.40
2018-04-23T14:18:29.137Z,10.33
2018-04-23T14:20:57.410Z,10.97
2018-04-23T14:23:25.714Z,9.87
2018-04-23T14:25:54.094Z,7.40
2018-04-23T14:28:22.368Z,7.70
2018-04-23T14:30:50.674Z,8.93
2018-04-23T14:33:19.701Z,9.40
2018-04-23T14:35:47.975Z,9.00
2018-04-23T14:38:16.542Z,8.67
2018-04-23T14:40:44.824Z,8.90
2018-04-23T14:43:13.074Z,10.27
2018-04-23T14:45:42.131Z,9.53
2018-04-23T14:48:10.400Z,7.57
2018-04-23T14:50:38.687Z,7.83
2018-04-23T14:53:06.986Z,8.50
2018-04-23T14:55:35.301Z,8.87
2018-04-23T14:58:03.593Z,8.60
2018-04-23T15:00:31.875Z,8.53
2018-04-23T15:03:00.170Z,8.63
2018-04-23T15:05:28.499Z,7.37
2018-04-23T15:07:56.794Z,7.27
2018-04-23T15:10:25.127Z,8.80
2018-04-23T15:12:54.207Z,8.70
2018-04-23T15:15:22.563Z,7.93
2018-04-23T15:17:50.888Z,8.80
2018-04-23T15:20:19.199Z,7.93
2018-04-23T15:22:49.136Z,8.60
2018-04-23T15:25:17.432Z,7.50
2018-04-23T15:27:46.496Z,7.93
2018-04-23T15:30:14.810Z,8.20
2018-04-23T15:32:43.854Z,9.47
2018-04-23T15:35:12.136Z,8.67
2018-04-23T15:37:40.401Z,9.17
2018-04-23T15:40:08.673Z,9.57
2018-04-23T15:42:37.082Z,8.00
2018-04-23T15:45:05.355Z,9.13
2018-04-23T15:47:33.699Z,9.43
2018-04-23T15:50:02.063Z,10.20
2018-04-23T15:52:30.526Z,9.13
2018-04-23T15:54:58.884Z,8.43
2018-04-23T15:57:27.930Z,9.40
2018-04-23T15:59:56.205Z,8.03
2018-04-23T16:02:24.893Z,8.60
2018-04-23T16:04:53.174Z,7.57
2018-04-23T16:07:21.443Z,7.60
2018-04-23T16:09:49.765Z,9.30
2018-04-23T16:12:18.808Z,8.00
2018-04-23T16:14:47.381Z,8.20
2018-04-23T16:17:15.667Z,7.60
2018-04-23T16:19:43.995Z,9.43
2018-04-23T16:22:13.030Z,8.47
2018-04-23T16:24:41.342Z,8.40
2018-04-23T16:27:10.380Z,9.87
2018-04-23T16:29:38.723Z,8.53
2018-04-23T16:32:07.053Z,9.33
2018-04-23T16:34:35.338Z,9.83
2018-04-23T16:37:03.631Z,9.17
2018-04-23T16:39:32.009Z,9.40
2018-04-23T16:42:00.343Z,9.10
2018-04-23T16:44:29.406Z,9.33
2018-04-23T16:46:57.745Z,10.37
2018-04-23T16:49:26.132Z,8.83
2018-04-23T16:51:55.253Z,8.03
2018-04-23T16:54:24.360Z,8.07
2018-04-23T16:56:52.661Z,8.13
2018-04-23T16:59:21.035Z,7.87
2018-04-23T17:01:49.487Z,8.77
2018-04-23T17:04:18.143Z,8.60
2018-04-23T17:06:55.720Z,8.87
2018-04-23T17:09:24.300Z,7.67
2018-04-23T17:11:52.937Z,8.07
2018-04-23T17:14:22.708Z,7.10
2018-04-23T17:16:51.570Z,8.07
2018-04-23T17:19:20.617Z,7.30
2018-04-23T17:21:49.224Z,7.23
2018-04-23T17:24:17.748Z,7.70
2018-04-23T17:26:46.223Z,6.83
2018-04-23T17:29:14.719Z,7.20
2018-04-23T17:31:43.478Z,6.70
2018-04-23T17:34:12.051Z,6.87
2018-04-23T17:36:40.570Z,5.77
2018-04-23T17:39:09.942Z,7.37
2018-04-23T17:41:38.462Z,6.53
2018-04-23T17:44:08.100Z,6.40
2018-04-23T17:46:37.521Z,6.93
2018-04-23T17:49:06.518Z,6.90
2018-04-23T17:51:36.019Z,6.43
2018-04-23T17:54:04.826Z,6.53
2018-04-23T17:56:34.266Z,6.50
2018-04-23T17:59:02.820Z,5.67
2018-04-23T18:01:31.272Z,6.50
2018-04-23T18:04:00.110Z,6.50
2018-04-23T18:06:28.649Z,5.70
2018-04-23T18:08:57.123Z,5.60
2018-04-23T18:11:25.805Z,6.53
2018-04-23T18:13:54.598Z,6.40
2018-04-23T18:16:23.398Z,6.27
2018-04-23T18:18:51.738Z,6.60
2018-04-23T18:21:20.767Z,6.87
2018-04-23T18:23:49.378Z,6.00
2018-04-23T18:26:18.143Z,6.43
2018-04-23T18:28:46.997Z,6.00
2018-04-23T18:31:15.553Z,6.23
2018-04-23T18:33:45.275Z,6.50
2018-04-23T18:36:13.647Z,6.57
2018-04-23T18:38:43.184Z,6.07
2018-04-23T18:41:11.943Z,5.37
2018-04-23T18:43:41.265Z,6.43
2018-04-23T18:46:09.959Z,7.40
2018-04-23T18:48:38.647Z,5.70
2018-04-23T18:51:07.264Z,5.47
2018-04-23T18:53:35.718Z,6.53
2018-04-23T18:56:04.490Z,6.30
2018-04-23T18:58:33.002Z,6.33
2018-04-23T19:01:01.379Z,6.40
2018-04-23T19:03:30.167Z,6.80
2018-04-23T19:05:58.799Z,6.47
2018-04-23T19:08:27.360Z,6.70
2018-04-23T19:10:55.929Z,6.05
2018-04-23T19:13:25.467Z,4.78
2018-04-23T19:15:54.482Z,6.22
2018-04-23T19:18:23.199Z,6.28
2018-04-23T19:20:51.751Z,6.62
2018-04-23T19:23:20.412Z,6.87
2018-04-23T19:25:48.828Z,5.47
2018-04-23T19:28:22.641Z,6.43
2018-04-23T19:30:51.354Z,6.10
2018-04-23T19:33:20.909Z,6.10
2018-04-23T19:35:49.424Z,5.82
2018-04-23T19:38:18.898Z,5.70
2018-04-23T19:40:47.483Z,5.55
2018-04-23T19:43:16.252Z,6.53
2018-04-23T19:48:18.608Z,5.43
2018-04-23T19:50:47.257Z,6.45
2018-04-23T19:53:16.614Z,7.32
2018-04-23T19:55:45.136Z,6.25
2018-04-23T19:58:13.549Z,5.75
2018-04-23T20:00:42.729Z,5.65
2018-04-23T20:03:11.168Z,6.30
2018-04-23T20:05:39.540Z,5.80
2018-04-23T20:08:08.093Z,6.20
2018-04-23T20:10:36.716Z,6.55
2018-04-23T20:13:05.048Z,7.82
2018-04-23T20:15:34.194Z,6.12
2018-04-23T20:18:02.482Z,5.45
2018-04-23T20:20:30.783Z,5.82
2018-04-23T20:22:59.885Z,6.95
2018-04-23T20:25:28.103Z,6.53
2018-04-23T20:27:56.369Z,6.30
2018-04-23T20:30:24.677Z,5.80
2018-04-23T20:32:53.798Z,6.72
2018-04-23T20:35:22.828Z,6.85
2018-04-23T20:37:51.132Z,6.68
2018-04-23T20:40:19.719Z,6.75
2018-04-23T20:42:48.276Z,6.72
2018-04-23T20:45:16.549Z,7.22
2018-04-23T20:47:44.846Z,6.90
2018-04-23T20:50:13.188Z,6.80
2018-04-23T20:52:41.538Z,7.18
2018-04-23T20:55:09.949Z,7.70
2018-04-23T20:57:38.235Z,8.73
2018-04-23T21:00:06.543Z,6.60
2018-04-23T21:02:34.904Z,7.35
2018-04-23T21:05:03.184Z,9.77
2018-04-23T21:07:31.470Z,7.47
2018-04-23T21:09:59.765Z,8.30
2018-04-23T21:12:28.820Z,8.15
2018-04-23T21:14:57.698Z,6.93
2018-04-23T21:17:25.978Z,7.45
2018-04-23T21:19:54.253Z,8.10
2018-04-23T21:22:22.566Z,9.00
2018-04-23T21:24:51.108Z,7.32
2018-04-23T21:27:19.378Z,7.97
2018-04-23T21:29:47.759Z,8.10
2018-04-23T21:34:50.610Z,7.62
2018-04-23T21:37:19.701Z,7.15
2018-04-23T21:39:48.751Z,7.35
2018-04-23T21:42:17.039Z,7.87
2018-04-23T21:44:45.286Z,7.47
2018-04-23T21:47:13.587Z,7.55
2018-04-23T21:49:41.885Z,6.35
2018-04-23T21:52:10.221Z,7.75
2018-04-23T21:54:38.551Z,7.82
2018-04-23T21:57:07.696Z,6.70
2018-04-23T21:59:35.890Z,7.43
2018-04-23T22:02:04.457Z,7.95
2018-04-23T22:04:32.704Z,7.95
2018-04-23T22:07:00.991Z,8.55
2018-04-23T22:09:29.399Z,7.80
2018-04-23T22:11:58.042Z,8.93
2018-04-23T22:14:26.351Z,8.35
2018-04-23T22:16:54.639Z,9.07
2018-04-23T22:19:23.155Z,7.90
2018-04-23T22:21:52.183Z,9.05
2018-04-23T22:24:20.454Z,8.45
2018-04-23T22:26:48.764Z,8.70
2018-04-23T22:29:17.066Z,10.85
2018-04-23T22:31:46.099Z,9.52
2018-04-23T22:34:14.417Z,10.43
2018-04-23T22:36:42.710Z,10.15
2018-04-23T22:39:11.768Z,9.45
2018-04-23T22:41:40.060Z,10.70
2018-04-23T22:44:08.350Z,11.12
2018-04-23T22:46:37.391Z,10.95
2018-04-23T22:49:05.690Z,10.07
2018-04-23T22:51:33.962Z,10.65
2018-04-23T22:54:02.238Z,11.70
2018-04-23T22:56:31.300Z,11.73
2018-04-23T22:58:59.601Z,12.30
2018-04-23T23:01:27.884Z,12.73
2018-04-23T23:03:56.154Z,12.60
2018-04-23T23:06:24.482Z,13.40
2018-04-23T23:08:52.845Z,14.57
2018-04-23T23:11:21.897Z,14.98
2018-04-23T23:13:50.173Z,15.88
2018-04-23T23:16:18.463Z,13.43
2018-04-23T23:18:46.726Z,13.43
2018-04-23T23:21:15.014Z,16.77
2018-04-23T23:23:43.323Z,15.15
2018-04-23T23:26:11.637Z,15.65
2018-04-23T23:28:39.907Z,16.73
2018-04-23T23:31:08.235Z,15.73
2018-04-23T23:33:37.301Z,17.37
2018-04-23T23:36:07.193Z,15.63
2018-04-23T23:38:35.489Z,15.13
2018-04-23T23:41:04.210Z,15.95
2018-04-23T23:43:33.257Z,17.52
2018-04-23T23:46:01.534Z,16.50
2018-04-23T23:48:29.816Z,15.65
2018-04-23T23:50:58.092Z,17.40
2018-04-23T23:53:26.376Z,20.02
2018-04-23T23:55:54.702Z,20.58
2018-04-23T23:58:23.013Z,24.10
